Nouméa, Nouvelle-Calédonie

07:58 NCT le 28 janvier 2015 (GMT +1100)
Port Moselle | Change Station
CLOSE
Current Station
Stations météorologiques personnelles
Location: Nouméa, PROVINCE SUD
Altitude: 33 ft
Stations météo à proximité

Alt. 33 ft 22.28 °S, 166.44 °E | Updated 13 minutes ago

Clear
Ciel dégagé
81.1 ° F
Paraît 86 ° F
N
1.0
Vent Variable Vent de Ouest
Gusts 4.0 mph

Aujourd'hui
Haut(e) -- | Bas -- ° F
--% Risque de précip.
Hier
Haut(e) -- | Bas -- ° F
Precip. -- pouce
5:31 AM 6:41 PM
Premier quartier, 57% visible
Pression 29.59 pouce
Visibilité 6.2 Miles terrestres
Nuages
indice de chaleur 86 ° F
Point de rosée 73 ° F
Humidité 77%
Précipitations 0.00 pouce
Profondeur de la couche neigeuse Non disponible.
UV Non disponible.
Pollen Non disponible.
Qualité de l'air Non disponible.
Flu Activity Non disponible.
METAR NWWW 272030Z AUTO 00000KT 9999 NSC 26/22 Q1002

More Conditions Fewer Conditions

Pression 29.59 pouce
Visibilité 6.2 Miles terrestres
Nuages
indice de chaleur 86 ° F
Point de rosée 73 ° F
Humidité 77%
Précipitations 0.00 pouce
Profondeur de la couche neigeuse Non disponible.
UV Non disponible.
Pollen Non disponible.
Qualité de l'air Non disponible.
Flu Activity Non disponible.
METAR NWWW 272030Z AUTO 00000KT 9999 NSC 26/22 Q1002

More Conditions Fewer Conditions

10-Day Weather Forecast

Almanac

Astronomie

Jan. 28, 2015 Lever Coucher
Temps réel
Crépuscule civil
Crépuscule nautique
Crépuscule astronomique
Lune
Durée de lumière visible
Longueur du jour
Tomorrow will be .
, % of the Moon is Illuminated

Extrêmes aujourd'hui

Country Highs Country Lows

Community

WunderPhotos

Upload Photos

1,790,900 Photos téléchargées !

WunderBlogs® & News

Nearby

Qualité de l'air

  Qualité de l'air Indice de la qualité de l'air Polluant
Not available.

Épaisseur de neige

Station Depth Altitude

Activité sismique

Ville Distance Mag. Time & Date
Minimum magnitude displayed is 2.5.

Températures des eaux côtières

Lieu Température

Stations météo à proximité